ADDS METAR Data INFO
IDs: Format: Raw Decoded Include TAF

Data at: 0921 UTC 13 Dec 2017

K14Y 130915Z AUTO 07003KT 7SM CLR M05/M06 A2935 RMK AO2
K14Y 130855Z AUTO 03004KT 7SM CLR M05/M06 A2936 RMK AO2
K14Y 130835Z AUTO 03005KT 7SM CLR M04/M05 A2937 RMK AO2
K14Y 130815Z AUTO 04003KT 7SM CLR M03/M04 A2938 RMK AO2
K14Y 130755Z AUTO 00000KT 10SM CLR M03/M04 A2939 RMK AO2
K14Y 130735Z AUTO 00000KT 7SM SCT120 M03/M04 A2940 RMK AO2
K14Y 130715Z AUTO 08004KT 7SM SCT120 M03/M05 A2940 RMK AO2
K14Y 130656Z AUTO 14004KT 7SM SCT110 M03/M05 A2942 RMK AO2
K14Y 130635Z AUTO 10004KT 7SM BKN110 M03/M05 A2942 RMK AO2
K14Y 130615Z AUTO 10003KT 7SM OVC110 M04/M05 A2945 RMK AO2
K14Y 130555Z AUTO 00000KT 7SM BKN120 M05/M05 A2948 RMK AO2
K14Y 130535Z AUTO 10003KT 7SM SCT120 M05/M06 A2949 RMK AO2
K14Y 130515Z AUTO 11004KT 7SM SCT100 M06/M06 A2951 RMK AO2
K14Y 130455Z AUTO 11003KT 5SM BR BKN100 M07/M07 A2952 RMK AO2
K14Y 130435Z AUTO 11003KT 7SM CLR M06/M07 A2955 RMK AO2
K14Y 130415Z AUTO 11003KT 7SM CLR M06/M06 A2956 RMK AO2
K14Y 130355Z AUTO 12005KT 7SM CLR M05/M06 A2959 RMK AO2
K14Y 130336Z AUTO 12005KT 7SM CLR M05/M06 A2961 RMK AO2
K14Y 130315Z AUTO 11007KT 7SM CLR M06/M06 A2963 RMK AO2
K14Y 130255Z AUTO 10005KT 10SM CLR M05/M06 A2965 RMK AO2
K14Y 130235Z AUTO 10004KT 7SM SCT060 M05/M06 A2967 RMK AO2
K14Y 130215Z AUTO 11006KT 7SM BKN060 M05/M06 A2968 RMK AO2
K14Y 130155Z AUTO 11005KT 7SM BKN060 M05/M06 A2970 RMK AO2
K14Y 130135Z AUTO 10004KT 7SM SCT060 M05/M06 A2972 RMK AO2
K14Y 130115Z AUTO 09005KT 7SM SCT060 M05/M06 A2973 RMK AO2
K14Y 130055Z AUTO 10005KT 10SM SCT050 SCT075 M04/M06 A2973 RMK AO2
K14Y 130035Z AUTO 10005KT 7SM SCT050 OVC075 M03/M05 A2975 RMK AO2
K14Y 130015Z AUTO 11005KT 7SM OVC075 M03/M05 A2976 RMK AO2
K14Y 122356Z AUTO 10005KT 10SM SCT060 OVC075 M03/M05 A2977 RMK AO2
K14Y 122335Z AUTO 11005KT 10SM BKN060 OVC075 M03/M05 A2977 RMK AO2
K14Y 122315Z AUTO 10005KT 7SM OVC065 M03/M05 A2979 RMK AO2
K14Y 122255Z AUTO 10005KT 7SM OVC065 M03/M05 A2981 RMK AO2
K14Y 122235Z AUTO 12006KT 7SM OVC075 M03/M05 A2982 RMK AO2
K14Y 122215Z AUTO 10004KT 10SM BKN075 M03/M05 A2983 RMK AO2
K14Y 122156Z AUTO 14005KT 7SM SCT075 SCT110 M03/M05 A2984 RMK AO2
K14Y 122135Z AUTO 13007KT 7SM SCT080 SCT110 M03/M05 A2985 RMK AO2
K14Y 122115Z AUTO 14006KT 7SM SCT080 M03/M06 A2987 RMK AO2
K14Y 122055Z AUTO 16007KT 5SM BR BKN080 M03/M06 A2988 RMK AO2
K14Y 122035Z AUTO 16007KT 7SM OVC080 M04/M06 A2990 RMK AO2
K14Y 122015Z AUTO 15006KT 7SM OVC080 M04/M06 A2991 RMK AO2
K14Y 121955Z AUTO 15007KT 7SM BKN090 M04/M07 A2993 RMK AO2
K14Y 121935Z AUTO 14006KT 10SM SCT090 M05/M07 A2994 RMK AO2
K14Y 121915Z AUTO 16007KT 10SM SCT090 M05/M08 A2995 RMK AO2
K14Y 121855Z AUTO 14007KT 10SM SCT013 BKN090 M06/M08 A2996 RMK AO2
K14Y 121835Z AUTO 17007KT 10SM SCT018 SCT110 M06/M09 A2999 RMK AO2
K14Y 121815Z AUTO 16006KT 10SM OVC018 M07/M10 A3001 RMK AO2
K14Y 121755Z AUTO 16008KT 10SM OVC018 M08/M10 A3002 RMK AO2
K14Y 121735Z AUTO 15008KT 10SM OVC016 M08/M11 A3005 RMK AO2
K14Y 121715Z AUTO 14007KT 10SM OVC014 M08/M11 A3007 RMK AO2
K14Y 121655Z AUTO 16008KT 10SM OVC014 M09/M11 A3007 RMK AO2
K14Y 121636Z AUTO 15006KT 10SM OVC014 M10/M12 A3008 RMK AO2
K14Y 121615Z AUTO 15007KT 10SM OVC016 M10/M12 A3009 RMK AO2
K14Y 121515Z AUTO 15006KT 10SM OVC020 M11/M13 A3012 RMK AO2
K14Y 121455Z AUTO 14004KT 10SM SCT020 BKN037 OVC043 M11/M13 A3013 RMK AO2
K14Y 121435Z AUTO 15004KT 10SM SCT023 OVC045 M12/M14 A3013 RMK AO2
K14Y 121415Z AUTO 17004KT 10SM SCT023 OVC039 M12/M14 A3014 RMK AO2
K14Y 121355Z AUTO 18004KT 10SM BKN037 OVC043 M12/M15 A3014 RMK AO2
K14Y 121335Z AUTO 19003KT 10SM BKN041 BKN048 OVC050 M13/M15 A3015 RMK AO2
K14Y 121315Z AUTO 20005KT 10SM SCT048 BKN050 OVC070 M13/M15 A3017 RMK AO2
K14Y 121255Z AUTO 20005KT 10SM SCT014 BKN048 OVC070 M13/M15 A3017 RMK AO2
K14Y 121235Z AUTO 20003KT 10SM BKN014 OVC055 M13/M16 A3018 RMK AO2
K14Y 121215Z AUTO 19003KT 10SM SCT014 OVC070 M14/M16 A3018 RMK AO2
K14Y 121155Z AUTO 23005KT 10SM OVC070 M14/M16 A3020 RMK AO2
K14Y 121135Z AUTO 23004KT 10SM OVC070 M15/M17 A3021 RMK AO2
K14Y 121115Z AUTO 23006KT 10SM OVC070 M15/M17 A3021 RMK AO2
K14Y 121055Z AUTO 24004KT 10SM OVC070 M15/M17 A3022 RMK AO2
K14Y 121035Z AUTO 24005KT 10SM BKN070 M15/M17 A3023 RMK AO2
K14Y 121015Z AUTO 23006KT 10SM SCT080 M15/M17 A3023 RMK AO2
K14Y 120956Z AUTO 23005KT 10SM BKN080 M15/M17 A3024 RMK AO2
K14Y 120935Z AUTO 23005KT 10SM SCT080 M16/M18 A3024 RMK AO2
K14Y 120915Z AUTO 24007KT 10SM CLR M16/M18 A3025 RMK AO2
K14Y 120855Z AUTO 25006KT 10SM CLR M16/M18 A3025 RMK AO2
K14Y 120835Z AUTO 24004KT 10SM CLR M16/M18 A3025 RMK AO2
K14Y 120815Z AUTO 25006KT 10SM CLR M16/M18 A3025 RMK AO2
K14Y 120755Z AUTO 24005KT 10SM CLR M16/M18 A3025 RMK AO2
K14Y 120735Z AUTO 24004KT 10SM CLR M16/M18 A3025 RMK AO2
K14Y 120715Z AUTO 25003KT 10SM CLR M16/M18 A3025 RMK AO2
K14Y 120655Z AUTO 26005KT 10SM CLR M16/M18 A3026 RMK AO2
K14Y 120635Z AUTO 27006KT 10SM CLR M15/M18 A3026 RMK AO2
K14Y 120615Z AUTO 28005KT 10SM CLR M15/M18 A3026 RMK AO2
K14Y 120555Z AUTO 27006KT 10SM CLR M15/M17 A3026 RMK AO2
K14Y 120536Z AUTO 27009KT 10SM CLR M15/M17 A3026 RMK AO2
K14Y 120515Z AUTO 28008KT 10SM CLR M14/M17 A3026 RMK AO2
K14Y 120455Z AUTO 29010KT 10SM CLR M14/M17 A3025 RMK AO2
K14Y 120435Z AUTO 28010KT 10SM CLR M14/M16 A3026 RMK AO2
K14Y 120415Z AUTO 29009G16KT 10SM CLR M13/M16 A3026 RMK AO2
K14Y 120355Z AUTO 29010KT 10SM CLR M13/M16 A3026 RMK AO2
K14Y 120335Z AUTO 28011KT 10SM CLR M13/M16 A3025 RMK AO2
K14Y 120315Z AUTO 29010KT 10SM CLR M13/M16 A3024 RMK AO2
K14Y 120255Z AUTO 28009KT 10SM CLR M12/M15 A3024 RMK AO2
K14Y 120235Z AUTO 28012G16KT 10SM CLR M12/M15 A3023 RMK AO2
K14Y 120215Z AUTO 28016G20KT 10SM CLR M12/M15 A3023 RMK AO2
K14Y 120155Z AUTO 29013KT 10SM CLR M12/M14 A3022 RMK AO2
K14Y 120135Z AUTO 28012G17KT 10SM CLR M11/M13 A3022 RMK AO2
K14Y 120115Z AUTO 28013G21KT 10SM CLR M11/M13 A3021 RMK AO2
K14Y 120055Z AUTO 27015G21KT 10SM CLR M10/M12 A3020 RMK AO2
K14Y 120035Z AUTO 27014G19KT 10SM CLR M09/M12 A3018 RMK AO2
K14Y 120015Z AUTO 28013G20KT 10SM CLR M08/M12 A3017 RMK AO2
K14Y 112355Z AUTO 28016KT 10SM CLR M08/M11 A3017 RMK AO2
K14Y 112335Z AUTO 28012G22KT 10SM CLR M07/M11 A3014 RMK AO2
K14Y 112315Z AUTO 28010KT 7SM SCT022 M06/M10 A3013 RMK AO2
K14Y 112255Z AUTO 29012G18KT 7SM BKN024 M06/M10 A3011 RMK AO2
K14Y 112235Z AUTO 30011G21KT 7SM OVC024 M05/M10 A3010 RMK AO2
K14Y 112215Z AUTO 30013G22KT 7SM OVC024 M05/M09 A3008 RMK AO2
K14Y 112155Z AUTO 28019G24KT 7SM OVC024 M04/M08 A3007 RMK AO2
K14Y 112135Z AUTO 28016KT 7SM OVC024 M04/M08 A3005 RMK AO2